Time;durP1;ratioP1;P1;durP2;ratioP2;P2;SDS_P1;SDS_P2;PMS_P1;PMS_P2;Temp;Humidity;BMP_temperature;BMP_pressure;BME280_temperature;BME280_humidity;BME280_pressure;Samples;Min_cycle;Max_cycle;Signal;HPM_P1;HPM_P2
2021/04/10 00:00:07;;;;;;;5.87;2.83;;;;;;;-1.54;68.21;96412.30;1795480;79;21136;-69
2021/04/10 00:02:38;;;;;;;3.15;2.10;;;;;;;-1.63;69.65;96414.54;1795618;80;21570;-69
2021/04/10 00:05:08;;;;;;;2.47;1.73;;;;;;;-1.69;68.85;96420.73;1795451;80;21131;-69
2021/04/10 00:07:36;;;;;;;3.20;2.00;;;;;;;-1.67;68.78;96413.51;1795369;79;21234;-69
2021/04/10 00:10:07;;;;;;;3.60;2.00;;;;;;;-1.55;68.51;96406.67;1795488;80;21139;-69
2021/04/10 00:12:35;;;;;;;3.73;2.13;;;;;;;-1.48;68.14;96407.81;1795329;79;21147;-70
2021/04/10 00:15:07;;;;;;;3.73;1.87;;;;;;;-1.43;67.59;96402.00;1795574;79;21141;-69
2021/04/10 00:17:34;;;;;;;5.27;3.00;;;;;;;-1.42;67.50;96401.58;1795608;80;21120;-69
2021/04/10 00:20:09;;;;;;;7.37;2.67;;;;;;;-1.41;67.53;96405.53;1795735;80;21167;-69
2021/04/10 00:22:38;;;;;;;4.50;1.80;;;;;;;-1.52;68.51;96405.50;1795412;80;21250;-69
2021/04/10 00:25:09;;;;;;;5.43;2.30;;;;;;;-1.59;67.61;96409.94;1795320;79;21140;-69
2021/04/10 00:27:37;;;;;;;5.83;2.30;;;;;;;-1.62;67.90;96404.65;1795274;79;21116;-69
2021/04/10 00:30:09;;;;;;;3.07;1.73;;;;;;;-1.57;67.50;96405.30;1795335;80;21803;-69
2021/04/10 00:32:37;;;;;;;6.43;2.10;;;;;;;-1.60;67.40;96401.30;1796110;80;21100;-69
2021/04/10 00:35:06;;;;;;;2.20;1.30;;;;;;;-1.61;66.86;96412.91;1795581;79;21585;-69
2021/04/10 00:37:35;;;;;;;3.17;1.50;;;;;;;-1.64;66.95;96407.58;1795582;80;21143;-69
2021/04/10 00:40:07;;;;;;;2.60;1.30;;;;;;;-1.63;66.82;96409.36;1795194;80;21155;-69
2021/04/10 00:42:36;;;;;;;3.83;1.52;;;;;;;-1.66;66.87;96403.66;1795756;80;21116;-69
2021/04/10 00:45:07;;;;;;;3.00;1.00;;;;;;;-1.64;66.63;96409.78;1795474;79;21711;-69
2021/04/10 00:47:35;;;;;;;2.20;0.90;;;;;;;-1.63;66.80;96404.19;1795433;79;21104;-69
2021/04/10 00:50:06;;;;;;;5.87;1.53;;;;;;;-1.61;66.77;96400.84;1795350;80;21135;-69
2021/04/10 00:52:36;;;;;;;4.43;1.60;;;;;;;-1.62;66.76;96396.47;1795490;79;21561;-69
2021/04/10 00:55:07;;;;;;;3.00;1.60;;;;;;;-1.71;67.78;96401.28;1795381;80;21565;-69
2021/04/10 00:57:35;;;;;;;4.30;1.90;;;;;;;-1.77;68.84;96399.30;1795660;80;21092;-69
2021/04/10 01:00:06;;;;;;;3.13;1.87;;;;;;;-1.81;68.17;96397.43;1795335;79;21147;-69
2021/04/10 01:02:34;;;;;;;4.10;2.23;;;;;;;-1.72;67.70;96393.45;1795498;80;21139;-69
2021/04/10 01:05:05;;;;;;;2.33;1.30;;;;;;;-1.77;67.43;96391.95;1795356;80;21273;-69
2021/04/10 01:07:33;;;;;;;2.63;1.40;;;;;;;-1.73;67.29;96390.41;1795376;80;21261;-69
2021/04/10 01:10:00;;;;;;;4.60;1.70;;;;;;;-1.69;67.01;96393.16;1795265;80;21712;-69
2021/04/10 01:12:46;;;;;;;1.73;1.30;;;;;;;-1.77;67.28;96386.37;1795485;79;21155;-69
2021/04/10 01:15:20;;;;;;;1.30;0.87;;;;;;;-1.80;67.35;96387.95;1791235;80;21135;-69
2021/04/10 01:17:55;;;;;;;3.27;1.60;;;;;;;-1.87;67.57;96388.09;1795587;80;21503;-69
2021/04/10 01:20:56;;;;;;;3.57;1.77;;;;;;;-1.91;67.55;96383.64;1795423;80;21554;-69
2021/04/10 01:23:58;;;;;;;3.13;1.43;;;;;;;-1.90;69.50;96389.27;1760827;80;21104;-69
2021/04/10 01:26:56;;;;;;;4.13;2.10;;;;;;;-1.90;68.55;96381.93;1795238;79;21140;-69
2021/04/10 01:29:25;;;;;;;3.37;1.53;;;;;;;-1.84;67.91;96384.76;1795219;79;21171;-69
2021/04/10 01:31:55;;;;;;;3.73;1.40;;;;;;;-1.86;67.78;96374.78;1795297;79;21277;-69
2021/04/10 01:34:32;;;;;;;3.73;2.10;;;;;;;-1.86;67.49;96376.95;1795589;79;21546;-69
2021/04/10 01:37:18;;;;;;;3.63;1.60;;;;;;;-1.81;67.40;96376.73;1795219;79;21127;-69
2021/04/10 01:39:50;;;;;;;1.87;1.30;;;;;;;-1.76;67.16;96380.81;1789629;80;21839;-69
2021/04/10 01:42:23;;;;;;;4.13;1.60;;;;;;;-1.77;66.89;96379.90;1795332;80;21116;-69
2021/04/10 01:44:52;;;;;;;2.45;1.55;;;;;;;-1.80;67.04;96378.48;1766950;80;21124;-69
2021/04/10 01:47:20;;;;;;;1.70;1.27;;;;;;;-1.89;67.02;96375.54;1795707;79;21146;-69
2021/04/10 01:49:51;;;;;;;2.67;1.30;;;;;;;-1.96;67.30;96379.98;1795316;79;21277;-69
2021/04/10 01:52:20;;;;;;;2.40;1.90;;;;;;;-1.91;67.64;96376.30;1795254;79;21277;-69
2021/04/10 01:54:49;;;;;;;3.37;1.60;;;;;;;-1.85;67.59;96373.95;1795213;79;22045;-69
2021/04/10 01:57:20;;;;;;;4.93;2.20;;;;;;;-1.87;67.26;96372.58;1795428;80;21139;-69
2021/04/10 01:59:50;;;;;;;4.83;2.67;;;;;;;-1.83;67.67;96375.78;1794410;80;21183;-69
2021/04/10 02:02:21;;;;;;;1.23;1.00;;;;;;;-1.86;67.28;96373.49;1794202;80;21561;-69
2021/04/10 02:04:51;;;;;;;2.97;1.93;;;;;;;-1.84;67.28;96375.33;1795365;79;21574;-69
2021/04/10 02:07:26;;;;;;;1.97;1.50;;;;;;;-1.81;67.40;96370.69;1795417;79;21273;-69
2021/04/10 02:09:55;;;;;;;3.70;1.80;;;;;;;-1.74;67.06;96368.80;1795247;80;21131;-69
2021/04/10 02:12:27;;;;;;;3.27;1.70;;;;;;;-1.76;67.29;96373.92;1793515;80;21131;-69
2021/04/10 02:15:01;;;;;;;5.93;2.17;;;;;;;-1.86;67.13;96367.91;1794418;80;21139;-69
2021/04/10 02:17:29;;;;;;;3.17;1.70;;;;;;;-1.92;67.15;96375.80;1795557;80;21578;-69
2021/04/10 02:19:58;;;;;;;3.03;2.20;;;;;;;-1.99;67.75;96370.39;1794816;80;21159;-69
2021/04/10 02:22:33;;;;;;;4.03;1.93;;;;;;;-2.02;68.33;96377.99;1795394;80;21258;-69
2021/04/10 02:24:55;;;;;;;2.97;1.70;;;;;;;-2.06;68.83;96376.53;1794441;80;21282;-69
2021/04/10 02:27:23;;;;;;;4.40;1.73;;;;;;;-1.98;68.59;96371.27;1795159;80;21625;-69
2021/04/10 02:29:57;;;;;;;4.33;1.87;;;;;;;-1.88;68.36;96368.66;1795096;79;21298;-69
2021/04/10 02:32:30;;;;;;;2.30;1.60;;;;;;;-1.77;68.03;96368.26;1795414;80;21159;-69
2021/04/10 02:35:11;;;;;;;4.47;2.00;;;;;;;-1.73;67.85;96367.12;1795270;79;21578;-69
2021/04/10 02:37:40;;;;;;;3.43;2.10;;;;;;;-1.80;67.56;96372.44;1795278;79;21247;-69
2021/04/10 02:40:13;;;;;;;2.77;2.10;;;;;;;-1.89;67.53;96365.20;1795001;80;21266;-69
2021/04/10 02:42:46;;;;;;;3.00;1.67;;;;;;;-1.91;67.70;96369.83;1766998;80;21127;-69
2021/04/10 02:45:25;;;;;;;2.15;1.80;;;;;;;-1.94;67.81;96371.88;1795483;79;21542;-69
2021/04/10 02:47:58;;;;;;;2.80;1.47;;;;;;;-1.97;67.99;96370.05;1795420;79;21092;-69
2021/04/10 02:50:28;;;;;;;3.17;1.90;;;;;;;-1.99;68.28;96377.23;1795338;80;21262;-69
2021/04/10 02:52:59;;;;;;;4.47;1.90;;;;;;;-1.97;68.19;96372.64;1795451;80;21147;-69
2021/04/10 02:55:35;;;;;;;2.67;1.50;;;;;;;-1.90;68.22;96375.05;1767144;80;21112;-69
2021/04/10 02:58:08;;;;;;;3.83;1.70;;;;;;;-1.96;68.03;96374.39;1795693;80;21084;-69
2021/04/10 03:00:41;;;;;;;4.20;1.90;;;;;;;-2.01;68.30;96375.02;1795465;80;21152;-69
2021/04/10 03:03:15;;;;;;;2.45;1.35;;;;;;;-2.01;68.53;96373.31;1795572;79;21119;-69
2021/04/10 03:05:45;;;;;;;2.83;1.60;;;;;;;-2.04;68.46;96375.78;1795785;80;21093;-69
2021/04/10 03:08:22;;;;;;;4.10;1.80;;;;;;;-2.02;68.32;96370.23;1795586;80;21151;-69
2021/04/10 03:10:54;;;;;;;2.03;1.33;;;;;;;-2.05;68.69;96373.11;1795471;80;21084;-69
2021/04/10 03:13:23;;;;;;;2.63;1.77;;;;;;;-2.14;68.75;96372.72;1795473;79;21700;-69
2021/04/10 03:15:54;;;;;;;2.77;1.93;;;;;;;-2.13;68.87;96372.80;1795068;80;21127;-69
2021/04/10 03:18:25;;;;;;;6.57;2.00;;;;;;;-2.07;68.98;96367.86;1795447;80;21266;-69
2021/04/10 03:20:56;;;;;;;6.43;2.03;;;;;;;-1.97;68.78;96375.22;1795107;80;21159;-69
2021/04/10 03:23:24;;;;;;;2.40;1.20;;;;;;;-1.98;69.32;96368.27;1795769;80;21131;-69
2021/04/10 03:25:52;;;;;;;3.10;1.93;;;;;;;-2.04;69.06;96369.70;1795452;80;21127;-69
2021/04/10 03:28:21;;;;;;;3.70;1.50;;;;;;;-2.07;69.32;96363.98;1795743;80;21104;-69
2021/04/10 03:30:51;;;;;;;6.27;1.77;;;;;;;-2.08;69.79;96369.11;1818749;78;21151;-69
2021/04/10 03:33:22;;;;;;;3.47;2.30;;;;;;;-2.15;70.88;96364.08;1819022;78;21114;-69
2021/04/10 03:35:50;;;;;;;4.50;1.80;;;;;;;-2.10;70.03;96368.16;1819234;79;21139;-69
2021/04/10 03:38:18;;;;;;;4.03;1.90;;;;;;;-1.99;69.94;96365.60;1819158;78;21123;-69
2021/04/10 03:40:47;;;;;;;3.67;2.23;;;;;;;-2.00;69.89;96368.60;1818965;78;21169;-69
2021/04/10 03:43:15;;;;;;;2.60;1.90;;;;;;;-1.94;70.34;96365.42;1819251;78;21100;-69
2021/04/10 03:45:46;;;;;;;4.37;1.80;;;;;;;-1.92;69.71;96369.34;1819105;79;21154;-69
2021/04/10 03:48:17;;;;;;;4.23;2.30;;;;;;;-1.93;70.26;96367.59;1818114;79;21154;-69
2021/04/10 03:50:46;;;;;;;3.47;1.70;;;;;;;-2.00;69.70;96365.14;1818598;79;21103;-69
2021/04/10 03:53:14;;;;;;;2.30;1.83;;;;;;;-2.07;70.57;96365.28;1819149;78;21156;-69
2021/04/10 03:55:44;;;;;;;2.57;1.30;;;;;;;-2.18;70.57;96378.17;1819034;79;21127;-69
2021/04/10 03:58:12;;;;;;;6.67;1.73;;;;;;;-2.25;70.64;96375.73;1819540;78;21715;-69
2021/04/10 04:00:42;;;;;;;2.67;1.50;;;;;;;-2.14;71.50;96377.50;1819348;79;21154;-69
2021/04/10 04:03:10;;;;;;;3.77;2.13;;;;;;;-2.12;70.90;96374.96;1819333;79;21150;-69
2021/04/10 04:05:37;;;;;;;5.70;2.83;;;;;;;-2.11;70.60;96371.16;1819265;78;21581;-69
2021/04/10 04:08:06;;;;;;;4.13;1.97;;;;;;;-2.07;70.68;96374.75;1819286;79;21115;-69
2021/04/10 04:10:34;;;;;;;3.10;1.50;;;;;;;-2.05;70.44;96378.28;1819067;79;21149;-69
2021/04/10 04:13:01;;;;;;;3.67;1.97;;;;;;;-1.98;70.31;96377.31;1819215;79;21130;-69
2021/04/10 04:15:29;;;;;;;3.93;2.53;;;;;;;-1.97;69.99;96378.20;1819167;78;21142;-69
2021/04/10 04:17:57;;;;;;;17.73;7.47;;;;;;;-1.94;71.31;96374.85;1819168;78;21134;-69
2021/04/10 04:20:25;;;;;;;6.10;3.43;;;;;;;-1.95;71.13;96375.27;1819185;79;21166;-69
2021/04/10 04:22:53;;;;;;;3.80;2.00;;;;;;;-1.86;71.05;96373.49;1819205;79;21584;-69
2021/04/10 04:25:21;;;;;;;8.43;4.00;;;;;;;-1.74;70.62;96372.67;1819287;78;21134;-69
2021/04/10 04:27:50;;;;;;;3.90;1.90;;;;;;;-1.66;70.11;96373.89;1818804;79;21095;-69
2021/04/10 04:30:21;;;;;;;2.63;1.67;;;;;;;-1.59;69.96;96373.33;1825171;78;21126;-69
2021/04/10 04:32:49;;;;;;;6.03;3.50;;;;;;;-1.48;70.08;96372.45;1800945;78;21130;-69
2021/04/10 04:35:16;;;;;;;3.77;2.00;;;;;;;-1.44;69.88;96367.86;1828404;78;21287;-69
2021/04/10 04:37:44;;;;;;;4.13;2.03;;;;;;;-1.38;69.85;96369.83;1828203;78;21157;-68
2021/04/10 04:40:14;;;;;;;4.17;2.17;;;;;;;-1.38;70.03;96369.83;1828280;78;21292;-69
2021/04/10 04:42:41;;;;;;;4.23;2.20;;;;;;;-1.33;69.94;96362.70;1828318;78;21284;-69
2021/04/10 04:45:10;;;;;;;5.03;3.07;;;;;;;-1.29;70.21;96364.99;1828275;78;21130;-69
2021/04/10 04:47:38;;;;;;;12.93;8.73;;;;;;;-1.26;70.08;96362.94;1828246;78;21253;-69
2021/04/10 04:50:07;;;;;;;6.93;4.63;;;;;;;-1.31;70.38;96357.19;1828202;78;21151;-69
2021/04/10 04:52:35;;;;;;;5.50;2.97;;;;;;;-1.25;70.36;96368.60;1800949;78;21166;-69
2021/04/10 04:55:04;;;;;;;8.10;2.53;;;;;;;-1.24;70.51;96367.77;1828042;78;21127;-69
2021/04/10 04:57:31;;;;;;;4.73;2.37;;;;;;;-1.23;71.25;96376.02;1827987;78;21133;-69
2021/04/10 04:59:59;;;;;;;4.57;2.10;;;;;;;-1.22;71.36;96368.72;1828067;78;21111;-69
2021/04/10 05:02:27;;;;;;;7.93;4.60;;;;;;;-1.18;71.35;96371.91;1827978;78;21149;-69
2021/04/10 05:04:54;;;;;;;6.03;3.70;;;;;;;-1.06;70.97;96371.06;1828067;78;21141;-69
2021/04/10 05:07:22;;;;;;;10.17;4.70;;;;;;;-0.95;71.00;96367.19;1828209;78;21272;-69
2021/04/10 05:09:50;;;;;;;7.23;3.70;;;;;;;-0.81;70.61;96373.30;1828103;78;21150;-69
2021/04/10 05:12:17;;;;;;;9.07;4.77;;;;;;;-0.72;70.61;96369.34;1827805;78;21719;-69
2021/04/10 05:14:45;;;;;;;25.50;18.00;;;;;;;-0.60;71.39;96373.23;1828292;78;21632;-69
2021/04/10 05:17:14;;;;;;;10.63;6.77;;;;;;;-0.57;70.82;96369.03;1828137;78;21161;-69
2021/04/10 05:19:42;;;;;;;11.80;7.13;;;;;;;-0.50;70.56;96368.84;1828220;78;21133;-69
2021/04/10 05:22:11;;;;;;;13.40;7.87;;;;;;;-0.39;70.15;96372.70;1828266;78;21348;-69
2021/04/10 05:24:38;;;;;;;16.87;9.10;;;;;;;-0.26;70.06;96367.11;1828060;78;21145;-69
2021/04/10 05:27:07;;;;;;;18.33;8.40;;;;;;;-0.10;69.40;96364.66;1828001;78;21153;-69
2021/04/10 05:29:35;;;;;;;12.57;7.27;;;;;;;0.08;68.38;96367.42;1820421;78;21135;-69
2021/04/10 05:32:05;;;;;;;17.53;8.73;;;;;;;0.23;68.45;96365.34;1795656;80;21131;-69
2021/04/10 05:34:33;;;;;;;18.13;8.70;;;;;;;0.43;67.84;96368.60;1795636;80;21510;-69
2021/04/10 05:37:01;;;;;;;18.33;9.60;;;;;;;0.63;67.53;96364.02;1795531;80;21123;-69
2021/04/10 05:39:29;;;;;;;16.37;8.10;;;;;;;0.83;66.37;96359.45;1795339;80;21259;-69
2021/04/10 05:41:57;;;;;;;19.90;10.07;;;;;;;0.94;66.04;96361.12;1795422;80;21178;-69
2021/04/10 05:44:24;;;;;;;12.63;8.30;;;;;;;1.11;66.05;96360.30;1795419;80;21111;-69
2021/04/10 05:46:52;;;;;;;15.73;7.83;;;;;;;1.24;65.73;96355.53;1766660;80;21139;-69
2021/04/10 05:49:20;;;;;;;13.77;7.17;;;;;;;1.40;65.77;96355.98;1795511;79;21273;-69
2021/04/10 05:51:47;;;;;;;14.70;7.23;;;;;;;1.56;65.48;96359.89;1795693;79;21131;-69
2021/04/10 05:54:15;;;;;;;13.97;7.50;;;;;;;1.66;65.40;96368.02;1795602;80;21147;-69
2021/04/10 05:56:43;;;;;;;14.53;7.97;;;;;;;1.79;65.12;96357.53;1795250;80;21131;-69
2021/04/10 05:59:10;;;;;;;10.93;7.40;;;;;;;1.91;64.49;96358.27;1795745;79;21132;-69
2021/04/10 06:01:38;;;;;;;12.50;7.33;;;;;;;2.06;64.15;96361.27;1795272;79;21171;-69
2021/04/10 06:04:06;;;;;;;15.47;6.87;;;;;;;2.20;63.88;96352.54;1795512;79;21146;-69
2021/04/10 06:06:33;;;;;;;13.53;6.73;;;;;;;2.36;63.70;96357.70;1795720;79;21154;-69
2021/04/10 06:09:02;;;;;;;12.03;6.57;;;;;;;2.53;63.25;96353.80;1795605;80;21140;-69
2021/04/10 06:11:30;;;;;;;14.57;8.00;;;;;;;2.71;63.02;96344.67;1795193;79;22134;-69
2021/04/10 06:13:57;;;;;;;12.03;6.77;;;;;;;2.86;62.75;96346.77;1795590;79;21127;-69
2021/04/10 06:16:25;;;;;;;10.00;5.20;;;;;;;3.01;62.42;96342.77;1795504;80;21155;-69
2021/04/10 06:18:53;;;;;;;8.07;4.70;;;;;;;3.17;61.26;96347.89;1795423;80;21126;-69
2021/04/10 06:21:20;;;;;;;11.47;5.00;;;;;;;3.33;61.87;96343.05;1795595;79;21144;-69
2021/04/10 06:23:48;;;;;;;5.97;3.63;;;;;;;3.52;61.74;96346.90;1795352;79;21176;-69
2021/04/10 06:26:16;;;;;;;5.57;3.23;;;;;;;3.71;60.43;96341.64;1795183;80;21151;-70
2021/04/10 06:28:43;;;;;;;7.33;3.57;;;;;;;3.89;60.83;96347.22;1795299;80;21265;-70
2021/04/10 06:31:11;;;;;;;7.87;4.00;;;;;;;4.08;60.55;96341.90;1813527;78;21542;-69
2021/04/10 06:33:38;;;;;;;8.63;5.10;;;;;;;4.27;60.20;96333.55;1818936;78;21153;-69
2021/04/10 06:36:07;;;;;;;8.33;4.00;;;;;;;4.49;58.15;96333.50;1819295;78;21173;-69
2021/04/10 06:38:34;;;;;;;6.10;3.27;;;;;;;4.67;56.43;96330.31;1818995;79;21146;-70
2021/04/10 06:41:02;;;;;;;4.60;2.83;;;;;;;4.86;58.24;96327.97;1819372;79;21159;-70
2021/04/10 06:43:30;;;;;;;6.57;2.70;;;;;;;5.08;57.88;96329.18;1787811;79;21536;-70
2021/04/10 06:46:01;;;;;;;4.73;2.60;;;;;;;5.28;56.90;96329.46;1819174;79;21138;-70
2021/04/10 06:48:32;;;;;;;4.33;2.57;;;;;;;5.46;56.54;96327.08;1819465;79;21118;-69
2021/04/10 06:51:02;;;;;;;4.50;2.77;;;;;;;5.67;55.77;96331.73;1819265;79;21091;-69
2021/04/10 06:53:32;;;;;;;3.87;2.23;;;;;;;5.85;55.36;96324.08;1819069;78;21557;-70
2021/04/10 06:56:03;;;;;;;4.53;2.97;;;;;;;6.08;51.44;96322.17;1819285;78;21139;-69
2021/04/10 06:58:56;;;;;;;4.03;2.50;;;;;;;6.31;54.04;96325.47;1819200;78;21529;-69
2021/04/10 07:01:26;;;;;;;8.53;4.30;;;;;;;6.53;51.70;96316.94;1819075;78;21574;-69
2021/04/10 07:03:54;;;;;;;7.37;4.77;;;;;;;6.81;52.13;96321.09;1819126;78;21131;-70
2021/04/10 07:06:22;;;;;;;4.90;3.60;;;;;;;7.02;51.39;96320.36;1819041;79;21601;-69
2021/04/10 07:08:50;;;;;;;4.97;3.37;;;;;;;7.25;49.94;96316.56;1819396;78;21134;-70
2021/04/10 07:11:17;;;;;;;4.40;2.83;;;;;;;7.48;48.99;96318.00;1819005;79;21131;-69
2021/04/10 07:13:45;;;;;;;4.07;3.00;;;;;;;7.69;48.29;96312.86;1818842;79;21162;-70
2021/04/10 07:16:13;;;;;;;4.50;2.73;;;;;;;7.91;47.49;96317.77;1819358;78;21103;-70
2021/04/10 07:18:41;;;;;;;5.50;3.37;;;;;;;8.09;48.02;96311.69;1819165;79;21584;-70
2021/04/10 07:21:21;;;;;;;6.60;3.60;;;;;;;8.27;47.78;96312.16;1818988;79;21576;-70
2021/04/10 07:23:52;;;;;;;4.70;3.03;;;;;;;8.41;46.11;96306.50;1789254;79;21087;-70
2021/04/10 07:26:42;;;;;;;5.10;3.20;;;;;;;8.59;46.98;96299.50;1819541;78;21110;-70
2021/04/10 07:29:40;;;;;;;4.37;2.73;;;;;;;8.68;46.33;96302.14;1800586;79;21134;-70
2021/04/10 07:32:35;;;;;;;5.07;3.17;;;;;;;8.70;44.09;96305.66;1819348;79;21565;-70
2021/04/10 07:35:10;;;;;;;4.57;3.03;;;;;;;8.79;45.88;96305.64;1819224;78;21123;-69
2021/04/10 07:37:51;;;;;;;7.30;3.43;;;;;;;8.91;45.85;96294.23;1818820;79;21134;-70
2021/04/10 07:40:27;;;;;;;5.70;3.50;;;;;;;9.01;46.79;96303.01;1819197;78;21139;-70
2021/04/10 07:43:01;;;;;;;4.80;3.17;;;;;;;9.10;47.37;96301.24;1819074;78;21111;-70
2021/04/10 07:45:33;;;;;;;5.73;3.80;;;;;;;9.20;46.20;96295.53;1819184;78;21138;-70
2021/04/10 07:48:06;;;;;;;4.50;3.20;;;;;;;9.26;45.01;96301.21;1819555;78;21118;-70
2021/04/10 07:50:35;;;;;;;6.05;3.98;;;;;;;9.33;44.93;96297.69;1819398;79;21088;-69
2021/04/10 07:53:27;;;;;;;9.30;4.60;;;;;;;9.47;45.90;96300.27;1819428;78;21549;-70
2021/04/10 07:56:04;;;;;;;7.90;5.00;;;;;;;9.64;46.25;96295.83;1780449;79;23120;-69
2021/04/10 07:58:35;;;;;;;11.20;6.43;;;;;;;9.68;45.04;96295.39;1753850;81;21145;-69
2021/04/10 08:01:06;;;;;;;16.13;6.20;;;;;;;9.71;45.36;96291.42;1754185;81;21090;-68
2021/04/10 08:03:45;;;;;;;8.20;5.83;;;;;;;9.81;45.67;96301.03;1753903;82;21137;-68
2021/04/10 08:06:14;;;;;;;8.37;5.20;;;;;;;9.93;45.46;96300.12;1754116;81;21129;-69
2021/04/10 08:08:57;;;;;;;8.17;5.53;;;;;;;10.02;45.72;96296.09;1754202;81;21157;-68
2021/04/10 08:11:43;;;;;;;9.10;6.10;;;;;;;10.08;44.37;96300.03;1754199;82;21137;-69
2021/04/10 08:14:13;;;;;;;7.53;4.80;;;;;;;10.17;44.39;96296.01;1754062;82;21133;-69
2021/04/10 08:16:50;;;;;;;8.43;4.43;;;;;;;10.31;44.61;96295.98;1754101;81;21146;-69
2021/04/10 08:19:30;;;;;;;7.27;4.87;;;;;;;10.37;44.41;96292.41;1754234;82;21134;-68
2021/04/10 08:21:58;;;;;;;9.80;4.37;;;;;;;10.46;42.10;96296.31;1753921;82;21595;-69
2021/04/10 08:24:32;;;;;;;6.23;4.40;;;;;;;10.57;43.21;96290.95;1754063;81;21547;-69
2021/04/10 08:27:04;;;;;;;6.37;3.93;;;;;;;10.67;40.50;96294.41;1753943;82;21097;-69
2021/04/10 08:29:34;;;;;;;;;;;;;;;10.72;40.99;96299.20;1756559;82;21415;-69
2021/04/10 08:32:03;;;;;;;10.43;4.30;;;;;;;10.83;40.62;96297.34;1754370;82;20149;-69
2021/04/10 08:34:31;;;;;;;10.40;5.00;;;;;;;10.97;40.53;96295.47;1754009;82;21588;-69
2021/04/10 08:37:05;;;;;;;8.43;4.90;;;;;;;11.15;40.57;96292.23;1754028;81;21580;-69
2021/04/10 08:39:41;;;;;;;7.40;4.33;;;;;;;11.21;40.06;96291.73;1753836;81;21106;-69
2021/04/10 08:42:13;;;;;;;8.70;4.87;;;;;;;11.30;39.94;96291.20;1753839;81;21113;-69
2021/04/10 08:44:45;;;;;;;13.70;6.13;;;;;;;11.40;38.81;96295.05;1754349;82;21123;-69
2021/04/10 08:47:14;;;;;;;12.50;7.00;;;;;;;11.47;36.15;96287.48;1753959;82;21552;-69
2021/04/10 08:49:47;;;;;;;11.47;8.00;;;;;;;11.59;38.83;96289.55;1754128;82;21114;-69
2021/04/10 08:52:25;;;;;;;13.30;7.90;;;;;;;11.74;38.79;96288.50;1754017;81;21520;-69
2021/04/10 08:54:52;;;;;;;10.07;5.20;;;;;;;11.89;37.79;96280.41;1728709;81;21161;-69
2021/04/10 08:57:21;;;;;;;7.27;4.47;;;;;;;11.96;37.65;96273.28;1762679;81;21132;-69
2021/04/10 08:59:49;;;;;;;8.20;5.17;;;;;;;12.14;37.86;96273.02;1762405;81;21551;-69
2021/04/10 09:02:22;;;;;;;8.87;5.67;;;;;;;12.31;37.63;96272.80;1762595;81;21157;-69
2021/04/10 09:04:57;;;;;;;7.95;4.78;;;;;;;12.46;36.19;96269.91;1762736;81;21120;-69
2021/04/10 09:07:51;;;;;;;6.90;3.97;;;;;;;12.53;35.83;96266.28;1754606;81;21279;-69
2021/04/10 09:10:30;;;;;;;7.87;4.00;;;;;;;12.71;35.45;96266.44;1726561;81;21589;-69
2021/04/10 09:13:16;;;;;;;7.77;4.50;;;;;;;12.91;37.31;96264.78;1761883;81;21141;-69
2021/04/10 09:15:44;;;;;;;7.80;4.67;;;;;;;13.04;35.75;96258.83;1762261;81;21168;-69
2021/04/10 09:18:14;;;;;;;5.40;4.03;;;;;;;13.17;35.22;96262.99;1762229;81;21102;-69
2021/04/10 09:20:51;;;;;;;7.33;4.33;;;;;;;13.29;35.50;96261.94;1761996;81;21148;-69
2021/04/10 09:23:26;;;;;;;7.43;5.23;;;;;;;13.28;33.81;96261.95;1762208;81;21508;-69
2021/04/10 09:26:14;;;;;;;7.60;4.03;;;;;;;13.38;34.97;96259.55;1762093;81;21265;-69
2021/04/10 09:29:08;;;;;;;5.37;3.83;;;;;;;13.44;33.42;96266.08;1761929;81;21090;-69
2021/04/10 09:31:40;;;;;;;4.80;4.30;;;;;;;13.60;32.68;96265.33;1762025;81;21690;-69
2021/04/10 09:35:05;;;;;;;5.40;3.90;;;;;;;13.57;32.61;96264.94;1762404;81;21164;-69
2021/04/10 09:37:39;;;;;;;6.57;4.80;;;;;;;13.46;33.86;96258.98;1734019;81;21157;-69
2021/04/10 09:40:20;;;;;;;7.97;4.40;;;;;;;13.74;33.84;96250.48;1762086;81;21259;-69
2021/04/10 09:43:05;;;;;;;6.40;4.70;;;;;;;14.01;33.39;96251.22;1762068;81;21299;-69
2021/04/10 09:45:35;;;;;;;8.37;5.00;;;;;;;14.40;32.84;96242.40;1762415;81;21137;-69
2021/04/10 09:48:11;;;;;;;5.67;4.30;;;;;;;14.60;33.19;96243.29;1761843;81;21279;-69
2021/04/10 09:50:45;;;;;;;5.77;3.97;;;;;;;14.80;32.77;96248.12;1762027;81;21262;-69
2021/04/10 09:53:16;;;;;;;6.17;4.60;;;;;;;14.99;32.33;96245.40;1761970;81;21089;-69
2021/04/10 09:55:48;;;;;;;10.73;5.10;;;;;;;15.22;32.67;96238.18;1748203;81;21575;-69
2021/04/10 09:58:19;;;;;;;6.37;4.13;;;;;;;15.52;32.59;96242.23;1740333;82;21126;-69
2021/04/10 10:00:55;;;;;;;6.00;3.87;;;;;;;15.70;30.82;96227.14;1740149;82;21252;-69
2021/04/10 10:03:25;;;;;;;5.23;3.87;;;;;;;15.91;31.22;96226.09;1740093;82;21121;-69
2021/04/10 10:05:56;;;;;;;5.87;4.20;;;;;;;16.03;30.52;96216.42;1738925;82;21149;-69
2021/04/10 10:08:28;;;;;;;7.10;3.90;;;;;;;15.89;29.02;96216.81;1740142;81;21328;-69
2021/04/10 10:11:07;;;;;;;4.97;3.77;;;;;;;15.81;29.13;96218.84;1740002;82;21260;-69
2021/04/10 10:13:37;;;;;;;4.93;3.70;;;;;;;15.59;30.22;96219.41;1740138;82;21135;-69
2021/04/10 10:16:06;;;;;;;7.97;4.10;;;;;;;15.47;31.43;96215.79;1740331;82;21154;-69
2021/04/10 10:18:42;;;;;;;7.03;3.90;;;;;;;15.57;30.68;96215.94;1740376;82;21292;-69
2021/04/10 10:21:17;;;;;;;7.93;3.70;;;;;;;15.76;29.72;96216.77;1740310;82;21273;-69
2021/04/10 10:24:02;;;;;;;7.13;4.33;;;;;;;15.81;30.12;96216.17;1740435;82;21102;-69
2021/04/10 10:26:36;;;;;;;6.83;4.53;;;;;;;16.10;31.07;96207.77;1740401;82;21300;-69
2021/04/10 10:29:14;;;;;;;5.77;4.23;;;;;;;16.17;29.01;96211.53;1740027;81;21122;-69
2021/04/10 10:31:50;;;;;;;7.23;4.40;;;;;;;15.88;29.89;96208.44;1740045;82;21115;-69
2021/04/10 10:34:24;;;;;;;7.40;3.80;;;;;;;15.78;28.54;96205.16;1740082;82;21142;-69
2021/04/10 10:36:54;;;;;;;6.03;3.40;;;;;;;15.91;28.98;96205.67;1740142;82;21099;-69
2021/04/10 10:39:31;;;;;;;10.47;5.67;;;;;;;16.25;30.42;96201.97;1740232;82;21146;-69
2021/04/10 10:42:03;;;;;;;7.30;4.23;;;;;;;16.18;28.00;96199.11;1740142;82;21094;-69
2021/04/10 10:44:31;;;;;;;6.13;3.90;;;;;;;16.17;26.60;96196.02;1740055;82;21091;-69
2021/04/10 10:47:02;;;;;;;5.43;3.30;;;;;;;15.97;26.74;96188.64;1740086;82;21577;-69
2021/04/10 10:49:31;;;;;;;5.00;4.13;;;;;;;15.54;26.20;96187.21;1740111;82;21272;-69
2021/04/10 10:52:00;;;;;;;5.03;4.23;;;;;;;15.21;26.01;96199.20;1740169;82;21276;-69
2021/04/10 10:54:35;;;;;;;5.13;4.23;;;;;;;14.85;26.93;96197.94;1740227;82;21126;-69
2021/04/10 10:57:15;;;;;;;5.77;3.93;;;;;;;14.84;28.55;96193.55;1740050;82;21142;-69
2021/04/10 10:59:45;;;;;;;7.27;3.83;;;;;;;14.86;27.83;96195.69;1737955;82;21604;-69
2021/04/10 11:02:19;;;;;;;8.03;4.00;;;;;;;14.86;27.12;96186.84;1740169;82;21145;-69
2021/04/10 11:04:47;;;;;;;5.93;3.47;;;;;;;14.69;27.83;96190.83;1740230;82;21147;-69
2021/04/10 11:07:22;;;;;;;8.57;3.97;;;;;;;14.57;27.79;96183.63;1719456;82;21131;-69
2021/04/10 11:09:51;;;;;;;7.03;4.13;;;;;;;14.50;28.47;96185.51;1740093;82;21276;-69
2021/04/10 11:12:20;;;;;;;4.67;3.33;;;;;;;14.39;28.70;96185.78;1740162;82;21296;-69
2021/04/10 11:14:52;;;;;;;5.13;3.60;;;;;;;14.28;29.67;96182.49;1740124;82;21154;-69
2021/04/10 11:17:31;;;;;;;5.87;3.60;;;;;;;14.25;29.92;96183.90;1739909;82;21293;-69
2021/04/10 11:20:02;;;;;;;5.57;3.30;;;;;;;14.16;31.16;96184.10;1740038;81;21154;-69
2021/04/10 11:22:30;;;;;;;5.50;3.70;;;;;;;14.17;30.30;96185.41;1740788;81;21134;-69
2021/04/10 11:25:02;;;;;;;6.07;3.60;;;;;;;14.17;30.02;96181.88;1740682;82;21133;-69
2021/04/10 11:27:35;;;;;;;6.97;3.63;;;;;;;14.11;28.00;96168.31;1740151;82;21099;-69
2021/04/10 11:30:12;;;;;;;;;;;;;;;14.18;29.40;96176.98;1742294;82;21311;-69
2021/04/10 11:32:43;;;;;;;6.30;3.20;;;;;;;15.08;33.09;96165.91;1740285;82;20154;-69
2021/04/10 11:35:23;;;;;;;6.70;3.50;;;;;;;16.14;30.27;96154.86;1740584;82;21162;-69
2021/04/10 11:37:54;;;;;;;6.58;3.98;;;;;;;17.21;28.26;96151.73;1740135;82;21147;-69
2021/04/10 11:40:31;;;;;;;4.87;3.17;;;;;;;17.96;25.03;96148.97;1740209;82;21129;-69
2021/04/10 11:43:05;;;;;;;4.53;2.98;;;;;;;18.80;26.82;96142.06;1740134;82;21718;-69
2021/04/10 11:45:42;;;;;;;7.22;3.52;;;;;;;19.24;22.62;96133.91;1739897;82;21121;-70
2021/04/10 11:48:16;;;;;;;8.70;3.40;;;;;;;19.44;23.70;96134.36;1740393;82;21126;-70
2021/04/10 11:50:56;;;;;;;4.62;3.22;;;;;;;19.65;22.09;96131.16;1740080;82;21134;-70
2021/04/10 11:53:37;;;;;;;5.35;3.45;;;;;;;19.55;22.51;96127.17;1740357;82;21296;-70
2021/04/10 11:56:34;;;;;;;5.30;3.67;;;;;;;18.47;23.92;96133.14;1744095;81;21563;-70